sensor_id;sensor_type;location;lat;lon;timestamp;P1;durP1;ratioP1;P2;durP2;ratioP2
43124;SDS011;49182;50.788;7.318;2023-02-22T00:01:23;40.97;;;16.73;;
43124;SDS011;49182;50.788;7.318;2023-02-22T00:03:50;27.50;;;14.20;;
43124;SDS011;49182;50.788;7.318;2023-02-22T00:06:18;35.08;;;14.75;;
43124;SDS011;49182;50.788;7.318;2023-02-22T00:08:48;33.80;;;15.45;;
43124;SDS011;49182;50.788;7.318;2023-02-22T00:11:15;49.22;;;15.32;;
43124;SDS011;49182;50.788;7.318;2023-02-22T00:13:42;43.70;;;14.85;;
43124;SDS011;49182;50.788;7.318;2023-02-22T00:16:12;37.90;;;14.43;;
43124;SDS011;49182;50.788;7.318;2023-02-22T00:18:40;32.63;;;15.20;;
43124;SDS011;49182;50.788;7.318;2023-02-22T00:21:07;29.52;;;13.40;;
43124;SDS011;49182;50.788;7.318;2023-02-22T00:23:33;37.72;;;13.00;;
43124;SDS011;49182;50.788;7.318;2023-02-22T00:26:01;41.13;;;13.68;;
43124;SDS011;49182;50.788;7.318;2023-02-22T00:28:28;38.85;;;14.23;;
43124;SDS011;49182;50.788;7.318;2023-02-22T00:30:55;36.65;;;14.07;;
43124;SDS011;49182;50.788;7.318;2023-02-22T00:33:22;42.15;;;12.77;;
43124;SDS011;49182;50.788;7.318;2023-02-22T00:35:48;35.95;;;13.48;;
43124;SDS011;49182;50.788;7.318;2023-02-22T00:38:16;45.22;;;13.07;;
43124;SDS011;49182;50.788;7.318;2023-02-22T00:40:44;29.00;;;12.32;;
43124;SDS011;49182;50.788;7.318;2023-02-22T00:43:13;29.70;;;13.48;;
43124;SDS011;49182;50.788;7.318;2023-02-22T00:45:40;38.90;;;13.85;;
43124;SDS011;49182;50.788;7.318;2023-02-22T00:48:08;27.98;;;12.70;;
43124;SDS011;49182;50.788;7.318;2023-02-22T00:50:35;27.65;;;12.25;;
43124;SDS011;49182;50.788;7.318;2023-02-22T00:53:03;47.67;;;13.10;;
43124;SDS011;49182;50.788;7.318;2023-02-22T00:55:31;32.47;;;11.88;;
43124;SDS011;49182;50.788;7.318;2023-02-22T00:58:00;25.80;;;12.15;;
43124;SDS011;49182;50.788;7.318;2023-02-22T01:00:29;29.30;;;11.88;;
43124;SDS011;49182;50.788;7.318;2023-02-22T01:02:57;38.92;;;12.70;;
43124;SDS011;49182;50.788;7.318;2023-02-22T01:05:24;37.45;;;12.05;;
43124;SDS011;49182;50.788;7.318;2023-02-22T01:07:52;40.53;;;12.40;;
43124;SDS011;49182;50.788;7.318;2023-02-22T01:10:21;28.58;;;12.38;;
43124;SDS011;49182;50.788;7.318;2023-02-22T01:12:49;35.35;;;12.18;;
43124;SDS011;49182;50.788;7.318;2023-02-22T01:15:17;36.13;;;11.70;;
43124;SDS011;49182;50.788;7.318;2023-02-22T01:17:47;34.20;;;11.52;;
43124;SDS011;49182;50.788;7.318;2023-02-22T01:20:16;39.60;;;12.25;;
43124;SDS011;49182;50.788;7.318;2023-02-22T01:22:44;51.28;;;11.98;;
43124;SDS011;49182;50.788;7.318;2023-02-22T01:25:15;29.05;;;11.13;;
43124;SDS011;49182;50.788;7.318;2023-02-22T01:27:43;38.60;;;12.10;;
43124;SDS011;49182;50.788;7.318;2023-02-22T01:30:10;24.85;;;11.40;;
43124;SDS011;49182;50.788;7.318;2023-02-22T01:32:39;32.60;;;12.23;;
43124;SDS011;49182;50.788;7.318;2023-02-22T01:35:09;37.85;;;11.25;;
43124;SDS011;49182;50.788;7.318;2023-02-22T01:37:37;44.13;;;11.57;;
43124;SDS011;49182;50.788;7.318;2023-02-22T01:40:04;35.05;;;10.95;;
43124;SDS011;49182;50.788;7.318;2023-02-22T01:42:32;43.33;;;10.65;;
43124;SDS011;49182;50.788;7.318;2023-02-22T01:48:08;36.28;;;11.52;;
43124;SDS011;49182;50.788;7.318;2023-02-22T01:50:40;27.48;;;10.25;;
43124;SDS011;49182;50.788;7.318;2023-02-22T01:53:12;34.83;;;11.10;;
43124;SDS011;49182;50.788;7.318;2023-02-22T01:55:42;28.02;;;12.30;;
43124;SDS011;49182;50.788;7.318;2023-02-22T01:58:11;39.10;;;11.38;;
43124;SDS011;49182;50.788;7.318;2023-02-22T02:00:40;32.53;;;11.93;;
43124;SDS011;49182;50.788;7.318;2023-02-22T02:03:08;27.08;;;11.05;;
43124;SDS011;49182;50.788;7.318;2023-02-22T02:05:41;28.20;;;10.57;;
43124;SDS011;49182;50.788;7.318;2023-02-22T02:08:11;33.28;;;10.90;;
43124;SDS011;49182;50.788;7.318;2023-02-22T02:10:46;21.35;;;10.07;;
43124;SDS011;49182;50.788;7.318;2023-02-22T02:13:14;25.48;;;10.77;;
43124;SDS011;49182;50.788;7.318;2023-02-22T02:15:41;25.55;;;10.13;;
43124;SDS011;49182;50.788;7.318;2023-02-22T02:18:09;30.85;;;10.52;;
43124;SDS011;49182;50.788;7.318;2023-02-22T02:20:38;32.95;;;11.23;;
43124;SDS011;49182;50.788;7.318;2023-02-22T02:23:24;25.00;;;11.20;;
43124;SDS011;49182;50.788;7.318;2023-02-22T02:26:09;24.88;;;10.63;;
43124;SDS011;49182;50.788;7.318;2023-02-22T02:31:59;28.95;;;10.52;;
43124;SDS011;49182;50.788;7.318;2023-02-22T02:34:54;31.92;;;10.20;;
43124;SDS011;49182;50.788;7.318;2023-02-22T02:37:30;31.90;;;10.88;;
43124;SDS011;49182;50.788;7.318;2023-02-22T02:40:05;34.20;;;10.48;;
43124;SDS011;49182;50.788;7.318;2023-02-22T02:42:44;22.33;;;9.60;;
43124;SDS011;49182;50.788;7.318;2023-02-22T02:45:20;21.13;;;10.02;;
43124;SDS011;49182;50.788;7.318;2023-02-22T02:47:54;31.77;;;10.15;;
43124;SDS011;49182;50.788;7.318;2023-02-22T02:50:24;30.65;;;9.65;;
43124;SDS011;49182;50.788;7.318;2023-02-22T02:52:55;30.58;;;9.70;;
43124;SDS011;49182;50.788;7.318;2023-02-22T02:55:26;58.70;;;11.63;;
43124;SDS011;49182;50.788;7.318;2023-02-22T02:57:54;44.08;;;9.90;;
43124;SDS011;49182;50.788;7.318;2023-02-22T03:00:22;32.25;;;9.50;;
43124;SDS011;49182;50.788;7.318;2023-02-22T03:02:59;37.95;;;10.23;;
43124;SDS011;49182;50.788;7.318;2023-02-22T03:05:42;27.88;;;10.07;;
43124;SDS011;49182;50.788;7.318;2023-02-22T03:08:28;43.13;;;10.15;;
43124;SDS011;49182;50.788;7.318;2023-02-22T03:11:03;35.08;;;10.02;;
43124;SDS011;49182;50.788;7.318;2023-02-22T03:13:34;28.90;;;9.80;;
43124;SDS011;49182;50.788;7.318;2023-02-22T03:16:08;37.78;;;9.07;;
43124;SDS011;49182;50.788;7.318;2023-02-22T03:18:52;22.02;;;9.45;;
43124;SDS011;49182;50.788;7.318;2023-02-22T03:21:28;32.78;;;9.85;;
43124;SDS011;49182;50.788;7.318;2023-02-22T03:24:00;51.42;;;9.80;;
43124;SDS011;49182;50.788;7.318;2023-02-22T03:26:34;35.70;;;10.52;;
43124;SDS011;49182;50.788;7.318;2023-02-22T03:29:06;20.80;;;8.75;;
43124;SDS011;49182;50.788;7.318;2023-02-22T03:31:37;35.97;;;9.57;;
43124;SDS011;49182;50.788;7.318;2023-02-22T03:34:10;31.13;;;9.70;;
43124;SDS011;49182;50.788;7.318;2023-02-22T03:36:41;25.42;;;9.15;;
43124;SDS011;49182;50.788;7.318;2023-02-22T03:39:14;50.72;;;10.15;;
43124;SDS011;49182;50.788;7.318;2023-02-22T03:41:46;31.90;;;8.40;;
43124;SDS011;49182;50.788;7.318;2023-02-22T03:44:15;45.63;;;8.80;;
43124;SDS011;49182;50.788;7.318;2023-02-22T03:46:46;25.47;;;8.87;;
43124;SDS011;49182;50.788;7.318;2023-02-22T03:49:18;20.20;;;8.63;;
43124;SDS011;49182;50.788;7.318;2023-02-22T03:51:52;37.17;;;8.75;;
43124;SDS011;49182;50.788;7.318;2023-02-22T03:54:22;51.05;;;9.93;;
43124;SDS011;49182;50.788;7.318;2023-02-22T03:56:50;61.35;;;9.55;;
43124;SDS011;49182;50.788;7.318;2023-02-22T03:59:21;40.05;;;8.65;;
43124;SDS011;49182;50.788;7.318;2023-02-22T04:01:50;35.95;;;9.95;;
43124;SDS011;49182;50.788;7.318;2023-02-22T04:04:18;33.90;;;8.63;;
43124;SDS011;49182;50.788;7.318;2023-02-22T04:06:46;24.60;;;9.25;;
43124;SDS011;49182;50.788;7.318;2023-02-22T04:09:14;32.63;;;8.75;;
43124;SDS011;49182;50.788;7.318;2023-02-22T04:11:41;47.55;;;9.40;;
43124;SDS011;49182;50.788;7.318;2023-02-22T04:14:09;37.78;;;8.73;;
43124;SDS011;49182;50.788;7.318;2023-02-22T04:16:36;20.17;;;8.00;;
43124;SDS011;49182;50.788;7.318;2023-02-22T04:19:06;30.50;;;9.27;;
43124;SDS011;49182;50.788;7.318;2023-02-22T04:21:36;47.13;;;9.18;;
43124;SDS011;49182;50.788;7.318;2023-02-22T04:24:07;28.90;;;8.70;;
43124;SDS011;49182;50.788;7.318;2023-02-22T04:26:34;21.30;;;7.47;;
43124;SDS011;49182;50.788;7.318;2023-02-22T04:29:02;20.77;;;7.55;;
43124;SDS011;49182;50.788;7.318;2023-02-22T04:31:35;22.35;;;8.27;;
43124;SDS011;49182;50.788;7.318;2023-02-22T04:34:02;18.17;;;8.88;;
43124;SDS011;49182;50.788;7.318;2023-02-22T04:36:33;23.40;;;7.63;;
43124;SDS011;49182;50.788;7.318;2023-02-22T04:39:01;19.48;;;7.25;;
43124;SDS011;49182;50.788;7.318;2023-02-22T04:41:29;14.85;;;7.65;;
43124;SDS011;49182;50.788;7.318;2023-02-22T04:43:56;27.25;;;7.57;;
43124;SDS011;49182;50.788;7.318;2023-02-22T04:46:24;17.77;;;7.60;;
43124;SDS011;49182;50.788;7.318;2023-02-22T04:48:52;23.10;;;9.30;;
43124;SDS011;49182;50.788;7.318;2023-02-22T04:51:22;43.20;;;9.20;;
43124;SDS011;49182;50.788;7.318;2023-02-22T04:53:56;27.60;;;8.10;;
43124;SDS011;49182;50.788;7.318;2023-02-22T04:56:25;15.20;;;6.75;;
43124;SDS011;49182;50.788;7.318;2023-02-22T04:58:51;15.05;;;7.40;;
43124;SDS011;49182;50.788;7.318;2023-02-22T05:01:18;20.83;;;7.68;;
43124;SDS011;49182;50.788;7.318;2023-02-22T05:03:45;13.95;;;7.32;;
43124;SDS011;49182;50.788;7.318;2023-02-22T05:06:12;16.73;;;6.70;;
43124;SDS011;49182;50.788;7.318;2023-02-22T05:08:39;13.95;;;7.18;;
43124;SDS011;49182;50.788;7.318;2023-02-22T05:11:06;18.38;;;6.65;;
43124;SDS011;49182;50.788;7.318;2023-02-22T05:13:34;18.67;;;7.82;;
43124;SDS011;49182;50.788;7.318;2023-02-22T05:16:01;20.63;;;7.70;;
43124;SDS011;49182;50.788;7.318;2023-02-22T05:18:28;23.75;;;7.75;;
43124;SDS011;49182;50.788;7.318;2023-02-22T05:20:55;19.88;;;7.05;;
43124;SDS011;49182;50.788;7.318;2023-02-22T05:23:22;18.35;;;8.02;;
43124;SDS011;49182;50.788;7.318;2023-02-22T05:25:49;13.95;;;7.10;;
43124;SDS011;49182;50.788;7.318;2023-02-22T05:28:15;14.55;;;7.45;;
43124;SDS011;49182;50.788;7.318;2023-02-22T05:30:46;14.15;;;6.90;;
43124;SDS011;49182;50.788;7.318;2023-02-22T05:33:13;19.25;;;8.20;;
43124;SDS011;49182;50.788;7.318;2023-02-22T05:35:40;21.42;;;7.65;;
43124;SDS011;49182;50.788;7.318;2023-02-22T05:38:07;15.82;;;7.47;;
43124;SDS011;49182;50.788;7.318;2023-02-22T05:40:35;15.63;;;7.10;;
43124;SDS011;49182;50.788;7.318;2023-02-22T05:43:01;11.95;;;6.53;;
43124;SDS011;49182;50.788;7.318;2023-02-22T05:45:28;13.25;;;7.13;;
43124;SDS011;49182;50.788;7.318;2023-02-22T05:47:56;15.45;;;7.55;;
43124;SDS011;49182;50.788;7.318;2023-02-22T05:50:23;12.98;;;7.15;;
43124;SDS011;49182;50.788;7.318;2023-02-22T05:52:50;13.15;;;7.40;;
43124;SDS011;49182;50.788;7.318;2023-02-22T05:55:18;13.43;;;6.68;;
43124;SDS011;49182;50.788;7.318;2023-02-22T05:57:47;14.02;;;7.85;;
43124;SDS011;49182;50.788;7.318;2023-02-22T06:00:18;13.52;;;7.57;;
43124;SDS011;49182;50.788;7.318;2023-02-22T06:02:47;13.65;;;6.95;;
43124;SDS011;49182;50.788;7.318;2023-02-22T06:05:20;13.10;;;6.90;;
43124;SDS011;49182;50.788;7.318;2023-02-22T06:07:47;13.45;;;7.18;;
43124;SDS011;49182;50.788;7.318;2023-02-22T06:10:14;13.02;;;6.35;;
43124;SDS011;49182;50.788;7.318;2023-02-22T06:12:41;11.07;;;6.13;;
43124;SDS011;49182;50.788;7.318;2023-02-22T06:15:08;16.38;;;7.78;;
43124;SDS011;49182;50.788;7.318;2023-02-22T06:17:35;13.43;;;7.05;;
43124;SDS011;49182;50.788;7.318;2023-02-22T06:20:02;14.23;;;7.03;;
43124;SDS011;49182;50.788;7.318;2023-02-22T06:22:30;14.70;;;7.18;;
43124;SDS011;49182;50.788;7.318;2023-02-22T06:24:57;17.25;;;7.82;;
43124;SDS011;49182;50.788;7.318;2023-02-22T06:27:23;14.85;;;6.82;;
43124;SDS011;49182;50.788;7.318;2023-02-22T06:29:50;12.48;;;6.55;;
43124;SDS011;49182;50.788;7.318;2023-02-22T06:32:16;12.45;;;6.65;;
43124;SDS011;49182;50.788;7.318;2023-02-22T06:34:43;13.43;;;6.88;;
43124;SDS011;49182;50.788;7.318;2023-02-22T06:37:11;13.07;;;7.75;;
43124;SDS011;49182;50.788;7.318;2023-02-22T06:39:39;15.35;;;7.53;;
43124;SDS011;49182;50.788;7.318;2023-02-22T06:42:06;18.25;;;7.93;;
43124;SDS011;49182;50.788;7.318;2023-02-22T06:44:33;15.27;;;7.10;;
43124;SDS011;49182;50.788;7.318;2023-02-22T06:46:59;13.25;;;7.03;;
43124;SDS011;49182;50.788;7.318;2023-02-22T06:49:26;12.80;;;5.82;;
43124;SDS011;49182;50.788;7.318;2023-02-22T06:51:53;14.30;;;6.47;;
43124;SDS011;49182;50.788;7.318;2023-02-22T06:54:20;13.40;;;7.13;;
43124;SDS011;49182;50.788;7.318;2023-02-22T06:56:49;16.05;;;7.88;;
43124;SDS011;49182;50.788;7.318;2023-02-22T06:59:17;13.55;;;7.43;;
43124;SDS011;49182;50.788;7.318;2023-02-22T07:01:44;14.15;;;7.10;;
43124;SDS011;49182;50.788;7.318;2023-02-22T07:04:10;12.70;;;7.05;;
43124;SDS011;49182;50.788;7.318;2023-02-22T07:06:37;13.98;;;7.20;;
43124;SDS011;49182;50.788;7.318;2023-02-22T07:09:03;16.02;;;7.13;;
43124;SDS011;49182;50.788;7.318;2023-02-22T07:11:30;14.55;;;7.25;;
43124;SDS011;49182;50.788;7.318;2023-02-22T07:13:58;15.50;;;7.20;;
43124;SDS011;49182;50.788;7.318;2023-02-22T07:16:25;13.90;;;6.50;;
43124;SDS011;49182;50.788;7.318;2023-02-22T07:18:51;14.45;;;6.80;;
43124;SDS011;49182;50.788;7.318;2023-02-22T07:21:18;12.90;;;5.82;;
43124;SDS011;49182;50.788;7.318;2023-02-22T07:23:49;15.13;;;7.13;;
43124;SDS011;49182;50.788;7.318;2023-02-22T07:26:16;12.98;;;7.03;;
43124;SDS011;49182;50.788;7.318;2023-02-22T07:28:43;11.75;;;6.30;;
43124;SDS011;49182;50.788;7.318;2023-02-22T07:31:11;14.00;;;6.75;;
43124;SDS011;49182;50.788;7.318;2023-02-22T07:33:37;14.70;;;7.28;;
43124;SDS011;49182;50.788;7.318;2023-02-22T07:36:04;15.52;;;7.43;;
43124;SDS011;49182;50.788;7.318;2023-02-22T07:38:31;14.20;;;6.95;;
43124;SDS011;49182;50.788;7.318;2023-02-22T07:40:58;15.75;;;7.95;;
43124;SDS011;49182;50.788;7.318;2023-02-22T07:43:26;15.15;;;7.80;;
43124;SDS011;49182;50.788;7.318;2023-02-22T07:45:55;14.80;;;7.60;;
43124;SDS011;49182;50.788;7.318;2023-02-22T07:48:25;14.90;;;7.38;;
43124;SDS011;49182;50.788;7.318;2023-02-22T07:50:53;15.88;;;7.72;;
43124;SDS011;49182;50.788;7.318;2023-02-22T07:53:22;17.38;;;8.02;;
43124;SDS011;49182;50.788;7.318;2023-02-22T07:55:54;15.77;;;8.50;;
43124;SDS011;49182;50.788;7.318;2023-02-22T07:58:23;15.40;;;7.70;;
43124;SDS011;49182;50.788;7.318;2023-02-22T08:00:51;14.52;;;7.82;;
43124;SDS011;49182;50.788;7.318;2023-02-22T08:03:19;16.25;;;7.82;;
43124;SDS011;49182;50.788;7.318;2023-02-22T08:05:50;17.92;;;8.52;;
43124;SDS011;49182;50.788;7.318;2023-02-22T08:08:19;17.83;;;9.05;;
43124;SDS011;49182;50.788;7.318;2023-02-22T08:10:46;15.73;;;8.07;;
43124;SDS011;49182;50.788;7.318;2023-02-22T08:13:13;17.52;;;8.85;;
43124;SDS011;49182;50.788;7.318;2023-02-22T08:15:41;17.42;;;8.45;;
43124;SDS011;49182;50.788;7.318;2023-02-22T08:18:10;18.30;;;7.60;;
43124;SDS011;49182;50.788;7.318;2023-02-22T08:20:41;15.27;;;8.18;;
43124;SDS011;49182;50.788;7.318;2023-02-22T08:23:12;16.70;;;8.32;;
43124;SDS011;49182;50.788;7.318;2023-02-22T08:25:39;13.73;;;7.32;;
43124;SDS011;49182;50.788;7.318;2023-02-22T08:28:07;14.45;;;7.60;;
43124;SDS011;49182;50.788;7.318;2023-02-22T08:30:36;18.40;;;8.88;;
43124;SDS011;49182;50.788;7.318;2023-02-22T08:33:07;17.48;;;8.00;;
43124;SDS011;49182;50.788;7.318;2023-02-22T08:35:35;17.13;;;8.52;;
43124;SDS011;49182;50.788;7.318;2023-02-22T08:38:03;17.02;;;8.50;;
43124;SDS011;49182;50.788;7.318;2023-02-22T08:40:33;17.23;;;8.30;;
43124;SDS011;49182;50.788;7.318;2023-02-22T08:43:00;16.80;;;8.60;;
43124;SDS011;49182;50.788;7.318;2023-02-22T08:45:28;16.48;;;8.25;;
43124;SDS011;49182;50.788;7.318;2023-02-22T08:47:55;16.67;;;8.15;;
43124;SDS011;49182;50.788;7.318;2023-02-22T08:50:23;15.18;;;8.10;;
43124;SDS011;49182;50.788;7.318;2023-02-22T08:52:52;17.08;;;8.18;;
43124;SDS011;49182;50.788;7.318;2023-02-22T08:55:20;15.15;;;8.43;;
43124;SDS011;49182;50.788;7.318;2023-02-22T08:57:48;16.95;;;9.00;;
43124;SDS011;49182;50.788;7.318;2023-02-22T09:00:15;16.15;;;8.80;;
43124;SDS011;49182;50.788;7.318;2023-02-22T09:02:42;18.10;;;9.55;;
43124;SDS011;49182;50.788;7.318;2023-02-22T09:05:09;18.50;;;9.40;;
43124;SDS011;49182;50.788;7.318;2023-02-22T09:07:37;16.30;;;8.95;;
43124;SDS011;49182;50.788;7.318;2023-02-22T09:10:06;14.77;;;8.15;;
43124;SDS011;49182;50.788;7.318;2023-02-22T09:12:33;16.42;;;8.45;;
43124;SDS011;49182;50.788;7.318;2023-02-22T09:15:01;20.23;;;9.23;;
43124;SDS011;49182;50.788;7.318;2023-02-22T09:17:28;16.17;;;8.52;;
43124;SDS011;49182;50.788;7.318;2023-02-22T09:19:55;15.50;;;8.73;;
43124;SDS011;49182;50.788;7.318;2023-02-22T09:22:22;19.45;;;9.40;;
43124;SDS011;49182;50.788;7.318;2023-02-22T09:24:50;18.58;;;8.70;;
43124;SDS011;49182;50.788;7.318;2023-02-22T09:27:17;22.23;;;9.50;;
43124;SDS011;49182;50.788;7.318;2023-02-22T09:29:46;18.13;;;8.68;;
43124;SDS011;49182;50.788;7.318;2023-02-22T09:32:15;15.85;;;8.60;;
43124;SDS011;49182;50.788;7.318;2023-02-22T09:34:41;18.10;;;9.20;;
43124;SDS011;49182;50.788;7.318;2023-02-22T09:37:08;23.98;;;9.40;;
43124;SDS011;49182;50.788;7.318;2023-02-22T09:39:35;19.13;;;10.02;;
43124;SDS011;49182;50.788;7.318;2023-02-22T09:42:02;17.02;;;9.68;;
43124;SDS011;49182;50.788;7.318;2023-02-22T09:44:37;18.67;;;9.25;;
43124;SDS011;49182;50.788;7.318;2023-02-22T09:47:11;19.23;;;8.85;;
43124;SDS011;49182;50.788;7.318;2023-02-22T09:49:42;17.70;;;10.52;;
43124;SDS011;49182;50.788;7.318;2023-02-22T09:52:17;19.38;;;9.80;;
43124;SDS011;49182;50.788;7.318;2023-02-22T09:54:51;21.25;;;9.50;;
43124;SDS011;49182;50.788;7.318;2023-02-22T09:57:21;19.93;;;10.27;;
43124;SDS011;49182;50.788;7.318;2023-02-22T09:59:56;19.20;;;9.95;;
43124;SDS011;49182;50.788;7.318;2023-02-22T10:02:36;18.90;;;10.65;;
43124;SDS011;49182;50.788;7.318;2023-02-22T10:05:11;18.00;;;10.65;;
43124;SDS011;49182;50.788;7.318;2023-02-22T10:07:44;19.92;;;10.57;;
43124;SDS011;49182;50.788;7.318;2023-02-22T10:10:13;20.83;;;10.55;;
43124;SDS011;49182;50.788;7.318;2023-02-22T10:12:43;19.55;;;10.32;;
43124;SDS011;49182;50.788;7.318;2023-02-22T10:15:26;22.27;;;10.52;;
43124;SDS011;49182;50.788;7.318;2023-02-22T10:18:16;19.00;;;10.65;;
43124;SDS011;49182;50.788;7.318;2023-02-22T10:20:59;17.05;;;10.07;;
43124;SDS011;49182;50.788;7.318;2023-02-22T10:23:32;17.55;;;9.82;;
43124;SDS011;49182;50.788;7.318;2023-02-22T10:26:13;19.95;;;10.48;;
43124;SDS011;49182;50.788;7.318;2023-02-22T10:28:42;18.88;;;10.15;;
43124;SDS011;49182;50.788;7.318;2023-02-22T10:31:19;17.08;;;9.35;;
43124;SDS011;49182;50.788;7.318;2023-02-22T10:33:50;17.90;;;9.95;;
43124;SDS011;49182;50.788;7.318;2023-02-22T10:38:50;21.80;;;10.68;;
43124;SDS011;49182;50.788;7.318;2023-02-22T10:41:22;20.00;;;10.75;;
43124;SDS011;49182;50.788;7.318;2023-02-22T10:43:53;18.77;;;11.40;;
43124;SDS011;49182;50.788;7.318;2023-02-22T10:46:20;17.23;;;9.95;;
43124;SDS011;49182;50.788;7.318;2023-02-22T10:48:49;18.27;;;10.00;;
43124;SDS011;49182;50.788;7.318;2023-02-22T10:51:19;16.95;;;10.13;;
43124;SDS011;49182;50.788;7.318;2023-02-22T10:56:45;17.67;;;10.40;;
43124;SDS011;49182;50.788;7.318;2023-02-22T10:59:24;20.20;;;9.95;;
43124;SDS011;49182;50.788;7.318;2023-02-22T11:01:52;19.20;;;10.43;;
43124;SDS011;49182;50.788;7.318;2023-02-22T11:04:20;19.17;;;10.20;;
43124;SDS011;49182;50.788;7.318;2023-02-22T11:06:48;17.95;;;9.63;;
43124;SDS011;49182;50.788;7.318;2023-02-22T11:09:41;16.63;;;9.57;;
43124;SDS011;49182;50.788;7.318;2023-02-22T11:12:16;15.45;;;9.13;;
43124;SDS011;49182;50.788;7.318;2023-02-22T11:14:44;19.70;;;9.65;;
43124;SDS011;49182;50.788;7.318;2023-02-22T11:17:12;16.08;;;8.80;;
43124;SDS011;49182;50.788;7.318;2023-02-22T11:19:46;19.98;;;9.27;;
43124;SDS011;49182;50.788;7.318;2023-02-22T11:22:19;17.10;;;8.95;;
43124;SDS011;49182;50.788;7.318;2023-02-22T11:24:50;16.27;;;8.00;;
43124;SDS011;49182;50.788;7.318;2023-02-22T11:27:23;15.73;;;8.48;;
43124;SDS011;49182;50.788;7.318;2023-02-22T11:29:53;16.73;;;8.35;;
43124;SDS011;49182;50.788;7.318;2023-02-22T11:32:21;13.90;;;7.93;;
43124;SDS011;49182;50.788;7.318;2023-02-22T11:34:48;13.88;;;7.90;;
43124;SDS011;49182;50.788;7.318;2023-02-22T11:40:12;13.65;;;6.90;;
43124;SDS011;49182;50.788;7.318;2023-02-22T11:42:41;13.80;;;7.40;;
43124;SDS011;49182;50.788;7.318;2023-02-22T11:45:08;12.20;;;6.82;;
43124;SDS011;49182;50.788;7.318;2023-02-22T11:47:44;12.60;;;6.70;;
43124;SDS011;49182;50.788;7.318;2023-02-22T11:50:25;14.95;;;7.22;;
43124;SDS011;49182;50.788;7.318;2023-02-22T11:52:57;11.82;;;6.70;;
43124;SDS011;49182;50.788;7.318;2023-02-22T11:55:40;13.32;;;7.15;;
43124;SDS011;49182;50.788;7.318;2023-02-22T11:58:19;13.00;;;6.78;;
43124;SDS011;49182;50.788;7.318;2023-02-22T12:00:56;13.77;;;7.35;;
43124;SDS011;49182;50.788;7.318;2023-02-22T12:03:33;11.52;;;6.35;;
43124;SDS011;49182;50.788;7.318;2023-02-22T12:06:20;11.77;;;6.28;;
43124;SDS011;49182;50.788;7.318;2023-02-22T12:09:02;12.13;;;6.35;;
43124;SDS011;49182;50.788;7.318;2023-02-22T12:11:38;11.10;;;6.10;;
43124;SDS011;49182;50.788;7.318;2023-02-22T12:14:17;11.02;;;5.85;;
43124;SDS011;49182;50.788;7.318;2023-02-22T12:16:58;11.38;;;6.35;;
43124;SDS011;49182;50.788;7.318;2023-02-22T12:19:48;10.27;;;6.10;;
43124;SDS011;49182;50.788;7.318;2023-02-22T12:22:17;11.93;;;6.60;;
43124;SDS011;49182;50.788;7.318;2023-02-22T12:24:51;11.27;;;6.45;;
43124;SDS011;49182;50.788;7.318;2023-02-22T12:27:37;12.80;;;7.25;;
43124;SDS011;49182;50.788;7.318;2023-02-22T12:30:10;11.57;;;6.00;;
43124;SDS011;49182;50.788;7.318;2023-02-22T12:32:41;12.70;;;6.25;;
43124;SDS011;49182;50.788;7.318;2023-02-22T12:35:11;12.15;;;6.20;;
43124;SDS011;49182;50.788;7.318;2023-02-22T12:37:47;9.50;;;5.88;;
43124;SDS011;49182;50.788;7.318;2023-02-22T12:40:20;11.77;;;5.82;;
43124;SDS011;49182;50.788;7.318;2023-02-22T12:42:55;11.18;;;6.10;;
43124;SDS011;49182;50.788;7.318;2023-02-22T12:45:27;11.10;;;5.78;;
43124;SDS011;49182;50.788;7.318;2023-02-22T12:48:02;11.40;;;5.82;;
43124;SDS011;49182;50.788;7.318;2023-02-22T12:50:45;13.95;;;6.38;;
43124;SDS011;49182;50.788;7.318;2023-02-22T12:53:16;19.23;;;6.95;;
43124;SDS011;49182;50.788;7.318;2023-02-22T12:55:50;12.63;;;6.75;;
43124;SDS011;49182;50.788;7.318;2023-02-22T12:58:24;12.23;;;6.22;;
43124;SDS011;49182;50.788;7.318;2023-02-22T13:00:56;14.98;;;7.05;;
43124;SDS011;49182;50.788;7.318;2023-02-22T13:06:00;13.13;;;6.70;;
43124;SDS011;49182;50.788;7.318;2023-02-22T13:08:38;10.43;;;6.18;;
43124;SDS011;49182;50.788;7.318;2023-02-22T13:11:13;12.85;;;6.72;;
43124;SDS011;49182;50.788;7.318;2023-02-22T13:13:50;11.98;;;6.68;;
43124;SDS011;49182;50.788;7.318;2023-02-22T13:16:32;12.65;;;6.90;;
43124;SDS011;49182;50.788;7.318;2023-02-22T13:19:07;15.10;;;6.80;;
43124;SDS011;49182;50.788;7.318;2023-02-22T13:21:48;15.30;;;7.50;;
43124;SDS011;49182;50.788;7.318;2023-02-22T13:24:22;13.10;;;6.88;;
43124;SDS011;49182;50.788;7.318;2023-02-22T13:26:52;15.25;;;7.45;;
43124;SDS011;49182;50.788;7.318;2023-02-22T13:29:26;15.50;;;7.47;;
43124;SDS011;49182;50.788;7.318;2023-02-22T13:34:54;13.38;;;7.35;;
43124;SDS011;49182;50.788;7.318;2023-02-22T13:37:33;13.32;;;7.13;;
43124;SDS011;49182;50.788;7.318;2023-02-22T13:40:16;13.88;;;7.70;;
43124;SDS011;49182;50.788;7.318;2023-02-22T13:42:54;12.97;;;7.63;;
43124;SDS011;49182;50.788;7.318;2023-02-22T13:45:54;15.55;;;7.90;;
43124;SDS011;49182;50.788;7.318;2023-02-22T13:48:36;16.70;;;7.60;;
43124;SDS011;49182;50.788;7.318;2023-02-22T13:51:41;15.38;;;8.90;;
43124;SDS011;49182;50.788;7.318;2023-02-22T13:54:18;15.57;;;8.30;;
43124;SDS011;49182;50.788;7.318;2023-02-22T13:56:50;14.52;;;7.65;;
43124;SDS011;49182;50.788;7.318;2023-02-22T13:59:23;14.68;;;7.43;;
43124;SDS011;49182;50.788;7.318;2023-02-22T14:01:54;14.10;;;8.05;;
43124;SDS011;49182;50.788;7.318;2023-02-22T14:04:35;13.02;;;7.63;;
43124;SDS011;49182;50.788;7.318;2023-02-22T14:13:19;16.10;;;8.32;;
43124;SDS011;49182;50.788;7.318;2023-02-22T14:18:44;14.48;;;7.60;;
43124;SDS011;49182;50.788;7.318;2023-02-22T14:21:13;13.77;;;7.47;;
43124;SDS011;49182;50.788;7.318;2023-02-22T14:23:42;13.57;;;7.60;;
43124;SDS011;49182;50.788;7.318;2023-02-22T14:26:10;15.07;;;7.90;;
43124;SDS011;49182;50.788;7.318;2023-02-22T14:28:40;14.05;;;7.97;;
43124;SDS011;49182;50.788;7.318;2023-02-22T14:31:13;12.52;;;7.68;;
43124;SDS011;49182;50.788;7.318;2023-02-22T14:34:03;13.25;;;7.55;;
43124;SDS011;49182;50.788;7.318;2023-02-22T14:36:33;14.45;;;8.43;;
43124;SDS011;49182;50.788;7.318;2023-02-22T14:41:37;14.55;;;6.88;;
43124;SDS011;49182;50.788;7.318;2023-02-22T14:44:11;14.45;;;7.10;;
43124;SDS011;49182;50.788;7.318;2023-02-22T14:46:41;15.18;;;7.53;;
43124;SDS011;49182;50.788;7.318;2023-02-22T14:49:12;14.07;;;8.82;;
43124;SDS011;49182;50.788;7.318;2023-02-22T14:51:48;12.95;;;7.38;;
43124;SDS011;49182;50.788;7.318;2023-02-22T14:54:18;15.02;;;7.97;;
43124;SDS011;49182;50.788;7.318;2023-02-22T14:56:53;16.90;;;8.75;;
43124;SDS011;49182;50.788;7.318;2023-02-22T14:59:26;16.42;;;8.70;;
43124;SDS011;49182;50.788;7.318;2023-02-22T15:02:03;14.70;;;7.63;;
43124;SDS011;49182;50.788;7.318;2023-02-22T15:04:38;15.50;;;8.05;;
43124;SDS011;49182;50.788;7.318;2023-02-22T15:07:07;12.48;;;7.60;;
43124;SDS011;49182;50.788;7.318;2023-02-22T15:09:35;12.93;;;7.22;;
43124;SDS011;49182;50.788;7.318;2023-02-22T15:12:09;13.82;;;8.52;;
43124;SDS011;49182;50.788;7.318;2023-02-22T15:14:37;14.48;;;8.13;;
43124;SDS011;49182;50.788;7.318;2023-02-22T15:17:06;13.50;;;7.38;;
43124;SDS011;49182;50.788;7.318;2023-02-22T15:19:39;15.38;;;8.07;;
43124;SDS011;49182;50.788;7.318;2023-02-22T15:22:13;13.90;;;7.13;;
43124;SDS011;49182;50.788;7.318;2023-02-22T15:24:46;16.38;;;7.15;;